sensor_id;sensor_type;location;lat;lon;timestamp;P1;durP1;ratioP1;P2;durP2;ratioP2
13386;SDS011;6763;48.524;9.044;2023-10-19T00:01:21;10.30;;;5.83;;
13386;SDS011;6763;48.524;9.044;2023-10-19T00:03:52;8.50;;;5.50;;
13386;SDS011;6763;48.524;9.044;2023-10-19T00:06:27;5.90;;;4.87;;
13386;SDS011;6763;48.524;9.044;2023-10-19T00:09:05;7.80;;;5.27;;
13386;SDS011;6763;48.524;9.044;2023-10-19T00:11:41;8.43;;;5.17;;
13386;SDS011;6763;48.524;9.044;2023-10-19T00:14:08;8.73;;;4.90;;
13386;SDS011;6763;48.524;9.044;2023-10-19T00:16:41;7.10;;;5.20;;
13386;SDS011;6763;48.524;9.044;2023-10-19T00:19:18;7.00;;;4.87;;
13386;SDS011;6763;48.524;9.044;2023-10-19T00:21:48;6.77;;;5.17;;
13386;SDS011;6763;48.524;9.044;2023-10-19T00:24:16;6.43;;;4.90;;
13386;SDS011;6763;48.524;9.044;2023-10-19T00:26:43;9.40;;;5.30;;
13386;SDS011;6763;48.524;9.044;2023-10-19T00:29:09;7.40;;;5.27;;
13386;SDS011;6763;48.524;9.044;2023-10-19T00:31:55;7.47;;;4.80;;
13386;SDS011;6763;48.524;9.044;2023-10-19T00:34:27;8.33;;;5.50;;
13386;SDS011;6763;48.524;9.044;2023-10-19T00:36:59;7.80;;;5.23;;
13386;SDS011;6763;48.524;9.044;2023-10-19T00:39:33;6.60;;;4.73;;
13386;SDS011;6763;48.524;9.044;2023-10-19T00:42:08;7.77;;;5.20;;
13386;SDS011;6763;48.524;9.044;2023-10-19T00:44:33;7.63;;;4.90;;
13386;SDS011;6763;48.524;9.044;2023-10-19T00:47:07;7.73;;;5.10;;
13386;SDS011;6763;48.524;9.044;2023-10-19T00:49:38;8.17;;;5.30;;
13386;SDS011;6763;48.524;9.044;2023-10-19T00:52:03;8.73;;;5.37;;
13386;SDS011;6763;48.524;9.044;2023-10-19T00:54:38;7.70;;;5.60;;
13386;SDS011;6763;48.524;9.044;2023-10-19T00:57:04;7.93;;;5.60;;
13386;SDS011;6763;48.524;9.044;2023-10-19T00:59:32;7.93;;;5.57;;
13386;SDS011;6763;48.524;9.044;2023-10-19T01:02:08;7.17;;;4.40;;
13386;SDS011;6763;48.524;9.044;2023-10-19T01:04:45;6.73;;;5.53;;
13386;SDS011;6763;48.524;9.044;2023-10-19T01:07:18;7.43;;;4.80;;
13386;SDS011;6763;48.524;9.044;2023-10-19T01:09:48;6.83;;;4.73;;
13386;SDS011;6763;48.524;9.044;2023-10-19T01:12:18;7.17;;;4.73;;
13386;SDS011;6763;48.524;9.044;2023-10-19T01:15:03;7.07;;;4.90;;
13386;SDS011;6763;48.524;9.044;2023-10-19T01:17:33;5.83;;;4.43;;
13386;SDS011;6763;48.524;9.044;2023-10-19T01:20:05;6.30;;;4.63;;
13386;SDS011;6763;48.524;9.044;2023-10-19T01:22:54;5.83;;;4.60;;
13386;SDS011;6763;48.524;9.044;2023-10-19T01:25:31;7.70;;;4.83;;
13386;SDS011;6763;48.524;9.044;2023-10-19T01:31:16;6.87;;;5.10;;
13386;SDS011;6763;48.524;9.044;2023-10-19T01:33:48;8.50;;;4.27;;
13386;SDS011;6763;48.524;9.044;2023-10-19T01:36:15;6.93;;;4.43;;
13386;SDS011;6763;48.524;9.044;2023-10-19T01:38:48;6.63;;;4.57;;
13386;SDS011;6763;48.524;9.044;2023-10-19T01:41:15;8.27;;;5.27;;
13386;SDS011;6763;48.524;9.044;2023-10-19T01:43:50;6.70;;;4.53;;
13386;SDS011;6763;48.524;9.044;2023-10-19T01:46:21;6.90;;;5.07;;
13386;SDS011;6763;48.524;9.044;2023-10-19T01:48:50;9.10;;;5.60;;
13386;SDS011;6763;48.524;9.044;2023-10-19T01:51:20;7.17;;;4.77;;
13386;SDS011;6763;48.524;9.044;2023-10-19T01:53:51;7.00;;;5.00;;
13386;SDS011;6763;48.524;9.044;2023-10-19T01:56:17;7.00;;;4.90;;
13386;SDS011;6763;48.524;9.044;2023-10-19T01:58:47;7.43;;;5.27;;
13386;SDS011;6763;48.524;9.044;2023-10-19T02:01:14;8.37;;;5.33;;
13386;SDS011;6763;48.524;9.044;2023-10-19T02:03:56;9.70;;;5.17;;
13386;SDS011;6763;48.524;9.044;2023-10-19T02:06:26;7.73;;;4.83;;
13386;SDS011;6763;48.524;9.044;2023-10-19T02:09:09;6.20;;;5.17;;
13386;SDS011;6763;48.524;9.044;2023-10-19T02:11:39;6.70;;;4.23;;
13386;SDS011;6763;48.524;9.044;2023-10-19T02:14:12;4.63;;;3.80;;
13386;SDS011;6763;48.524;9.044;2023-10-19T02:16:43;7.63;;;4.20;;
13386;SDS011;6763;48.524;9.044;2023-10-19T02:19:14;6.13;;;4.10;;
13386;SDS011;6763;48.524;9.044;2023-10-19T02:21:40;5.97;;;4.40;;
13386;SDS011;6763;48.524;9.044;2023-10-19T02:24:07;6.37;;;4.27;;
13386;SDS011;6763;48.524;9.044;2023-10-19T02:26:34;6.90;;;4.30;;
13386;SDS011;6763;48.524;9.044;2023-10-19T02:29:02;6.50;;;4.23;;
13386;SDS011;6763;48.524;9.044;2023-10-19T02:31:33;5.60;;;4.33;;
13386;SDS011;6763;48.524;9.044;2023-10-19T02:34:02;5.43;;;4.20;;
13386;SDS011;6763;48.524;9.044;2023-10-19T02:36:36;6.70;;;4.97;;
13386;SDS011;6763;48.524;9.044;2023-10-19T02:39:04;6.00;;;4.10;;
13386;SDS011;6763;48.524;9.044;2023-10-19T02:41:38;6.53;;;4.53;;
13386;SDS011;6763;48.524;9.044;2023-10-19T02:44:13;6.50;;;4.43;;
13386;SDS011;6763;48.524;9.044;2023-10-19T02:46:45;6.03;;;4.13;;
13386;SDS011;6763;48.524;9.044;2023-10-19T02:49:13;6.50;;;4.60;;
13386;SDS011;6763;48.524;9.044;2023-10-19T02:51:43;7.33;;;4.30;;
13386;SDS011;6763;48.524;9.044;2023-10-19T02:54:10;7.33;;;4.60;;
13386;SDS011;6763;48.524;9.044;2023-10-19T02:56:43;7.03;;;4.97;;
13386;SDS011;6763;48.524;9.044;2023-10-19T02:59:14;7.93;;;5.00;;
13386;SDS011;6763;48.524;9.044;2023-10-19T03:01:41;7.90;;;5.00;;
13386;SDS011;6763;48.524;9.044;2023-10-19T03:04:10;7.43;;;5.07;;
13386;SDS011;6763;48.524;9.044;2023-10-19T03:06:37;6.73;;;4.80;;
13386;SDS011;6763;48.524;9.044;2023-10-19T03:09:10;6.73;;;4.80;;
13386;SDS011;6763;48.524;9.044;2023-10-19T03:12:32;6.50;;;4.30;;
13386;SDS011;6763;48.524;9.044;2023-10-19T03:14:58;6.77;;;4.83;;
13386;SDS011;6763;48.524;9.044;2023-10-19T03:17:25;5.53;;;4.30;;
13386;SDS011;6763;48.524;9.044;2023-10-19T03:19:51;6.63;;;4.87;;
13386;SDS011;6763;48.524;9.044;2023-10-19T03:22:25;7.37;;;4.77;;
13386;SDS011;6763;48.524;9.044;2023-10-19T03:25:03;9.77;;;5.03;;
13386;SDS011;6763;48.524;9.044;2023-10-19T03:27:54;7.20;;;4.50;;
13386;SDS011;6763;48.524;9.044;2023-10-19T03:30:20;5.13;;;4.30;;
13386;SDS011;6763;48.524;9.044;2023-10-19T03:32:50;6.67;;;4.40;;
13386;SDS011;6763;48.524;9.044;2023-10-19T03:35:15;6.07;;;4.00;;
13386;SDS011;6763;48.524;9.044;2023-10-19T03:37:41;5.27;;;3.87;;
13386;SDS011;6763;48.524;9.044;2023-10-19T03:40:11;6.77;;;4.03;;
13386;SDS011;6763;48.524;9.044;2023-10-19T03:42:41;6.10;;;4.17;;
13386;SDS011;6763;48.524;9.044;2023-10-19T03:45:11;6.27;;;3.90;;
13386;SDS011;6763;48.524;9.044;2023-10-19T03:47:40;6.20;;;3.70;;
13386;SDS011;6763;48.524;9.044;2023-10-19T03:50:08;5.73;;;4.37;;
13386;SDS011;6763;48.524;9.044;2023-10-19T03:52:39;7.93;;;3.67;;
13386;SDS011;6763;48.524;9.044;2023-10-19T03:55:05;4.50;;;3.90;;
13386;SDS011;6763;48.524;9.044;2023-10-19T03:57:36;5.47;;;3.80;;
13386;SDS011;6763;48.524;9.044;2023-10-19T04:00:06;5.87;;;3.90;;
13386;SDS011;6763;48.524;9.044;2023-10-19T04:02:40;5.90;;;4.13;;
13386;SDS011;6763;48.524;9.044;2023-10-19T04:05:07;6.47;;;3.90;;
13386;SDS011;6763;48.524;9.044;2023-10-19T04:07:35;4.13;;;3.57;;
13386;SDS011;6763;48.524;9.044;2023-10-19T04:10:00;6.80;;;4.30;;
13386;SDS011;6763;48.524;9.044;2023-10-19T04:12:38;4.83;;;3.47;;
13386;SDS011;6763;48.524;9.044;2023-10-19T04:15:08;8.43;;;4.00;;
13386;SDS011;6763;48.524;9.044;2023-10-19T04:17:39;7.73;;;3.50;;
13386;SDS011;6763;48.524;9.044;2023-10-19T04:20:07;6.10;;;3.67;;
13386;SDS011;6763;48.524;9.044;2023-10-19T04:22:40;4.53;;;3.73;;
13386;SDS011;6763;48.524;9.044;2023-10-19T04:25:05;7.80;;;4.03;;
13386;SDS011;6763;48.524;9.044;2023-10-19T04:27:31;6.37;;;3.47;;
13386;SDS011;6763;48.524;9.044;2023-10-19T04:30:00;6.03;;;3.57;;
13386;SDS011;6763;48.524;9.044;2023-10-19T04:32:27;4.57;;;3.50;;
13386;SDS011;6763;48.524;9.044;2023-10-19T04:34:52;4.10;;;3.00;;
13386;SDS011;6763;48.524;9.044;2023-10-19T04:37:18;4.13;;;2.93;;
13386;SDS011;6763;48.524;9.044;2023-10-19T04:39:44;4.07;;;3.00;;
13386;SDS011;6763;48.524;9.044;2023-10-19T04:42:15;5.53;;;3.33;;
13386;SDS011;6763;48.524;9.044;2023-10-19T04:51:45;5.80;;;3.60;;
13386;SDS011;6763;48.524;9.044;2023-10-19T04:54:10;5.90;;;3.80;;
13386;SDS011;6763;48.524;9.044;2023-10-19T04:56:35;5.30;;;3.90;;
13386;SDS011;6763;48.524;9.044;2023-10-19T04:59:01;4.37;;;3.30;;
13386;SDS011;6763;48.524;9.044;2023-10-19T05:01:27;6.63;;;3.50;;
13386;SDS011;6763;48.524;9.044;2023-10-19T05:03:53;4.83;;;3.80;;
13386;SDS011;6763;48.524;9.044;2023-10-19T05:06:19;4.50;;;3.40;;
13386;SDS011;6763;48.524;9.044;2023-10-19T05:08:44;4.53;;;2.90;;
13386;SDS011;6763;48.524;9.044;2023-10-19T05:11:11;5.20;;;3.00;;
13386;SDS011;6763;48.524;9.044;2023-10-19T05:13:37;5.63;;;3.90;;
13386;SDS011;6763;48.524;9.044;2023-10-19T05:16:04;6.10;;;4.03;;
13386;SDS011;6763;48.524;9.044;2023-10-19T05:18:30;5.53;;;3.77;;
13386;SDS011;6763;48.524;9.044;2023-10-19T05:20:55;5.70;;;3.47;;
13386;SDS011;6763;48.524;9.044;2023-10-19T05:23:22;4.57;;;3.33;;
13386;SDS011;6763;48.524;9.044;2023-10-19T05:25:51;4.40;;;3.30;;
13386;SDS011;6763;48.524;9.044;2023-10-19T05:28:18;7.57;;;3.70;;
13386;SDS011;6763;48.524;9.044;2023-10-19T05:30:44;5.90;;;3.30;;
13386;SDS011;6763;48.524;9.044;2023-10-19T05:33:10;6.90;;;3.87;;
13386;SDS011;6763;48.524;9.044;2023-10-19T05:35:35;6.90;;;3.97;;
13386;SDS011;6763;48.524;9.044;2023-10-19T05:38:05;7.40;;;4.13;;
13386;SDS011;6763;48.524;9.044;2023-10-19T05:40:30;6.20;;;3.97;;
13386;SDS011;6763;48.524;9.044;2023-10-19T05:42:59;4.20;;;3.50;;
13386;SDS011;6763;48.524;9.044;2023-10-19T05:45:26;5.37;;;3.70;;
13386;SDS011;6763;48.524;9.044;2023-10-19T05:47:53;6.90;;;3.70;;
13386;SDS011;6763;48.524;9.044;2023-10-19T05:50:18;4.73;;;3.30;;
13386;SDS011;6763;48.524;9.044;2023-10-19T05:52:44;13.00;;;5.10;;
13386;SDS011;6763;48.524;9.044;2023-10-19T05:55:10;5.87;;;3.93;;
13386;SDS011;6763;48.524;9.044;2023-10-19T05:57:36;7.60;;;4.63;;
13386;SDS011;6763;48.524;9.044;2023-10-19T06:00:05;6.13;;;3.77;;
13386;SDS011;6763;48.524;9.044;2023-10-19T06:02:32;5.10;;;3.37;;
13386;SDS011;6763;48.524;9.044;2023-10-19T06:04:57;9.20;;;4.30;;
13386;SDS011;6763;48.524;9.044;2023-10-19T06:07:23;7.33;;;4.07;;
13386;SDS011;6763;48.524;9.044;2023-10-19T06:09:50;7.10;;;4.33;;
13386;SDS011;6763;48.524;9.044;2023-10-19T06:12:15;4.47;;;3.07;;
13386;SDS011;6763;48.524;9.044;2023-10-19T06:14:40;4.10;;;3.00;;
13386;SDS011;6763;48.524;9.044;2023-10-19T06:17:06;3.37;;;2.80;;
13386;SDS011;6763;48.524;9.044;2023-10-19T06:22:07;6.60;;;3.80;;
13386;SDS011;6763;48.524;9.044;2023-10-19T06:24:33;7.43;;;4.07;;
13386;SDS011;6763;48.524;9.044;2023-10-19T06:27:02;4.67;;;3.43;;
13386;SDS011;6763;48.524;9.044;2023-10-19T06:29:29;4.87;;;3.30;;
13386;SDS011;6763;48.524;9.044;2023-10-19T06:31:54;4.30;;;3.50;;
13386;SDS011;6763;48.524;9.044;2023-10-19T06:34:20;4.93;;;3.20;;
13386;SDS011;6763;48.524;9.044;2023-10-19T06:36:45;4.80;;;3.13;;
13386;SDS011;6763;48.524;9.044;2023-10-19T06:39:15;4.03;;;3.10;;
13386;SDS011;6763;48.524;9.044;2023-10-19T06:41:42;2.80;;;2.50;;
13386;SDS011;6763;48.524;9.044;2023-10-19T06:44:10;4.30;;;3.00;;
13386;SDS011;6763;48.524;9.044;2023-10-19T06:46:36;4.20;;;3.40;;
13386;SDS011;6763;48.524;9.044;2023-10-19T06:49:04;3.43;;;2.97;;
13386;SDS011;6763;48.524;9.044;2023-10-19T06:51:29;4.23;;;3.10;;
13386;SDS011;6763;48.524;9.044;2023-10-19T06:53:55;4.27;;;3.20;;
13386;SDS011;6763;48.524;9.044;2023-10-19T06:56:21;3.70;;;2.63;;
13386;SDS011;6763;48.524;9.044;2023-10-19T06:58:46;4.13;;;3.27;;
13386;SDS011;6763;48.524;9.044;2023-10-19T07:01:11;3.60;;;2.67;;
13386;SDS011;6763;48.524;9.044;2023-10-19T07:03:41;3.83;;;2.70;;
13386;SDS011;6763;48.524;9.044;2023-10-19T07:06:07;4.20;;;2.73;;
13386;SDS011;6763;48.524;9.044;2023-10-19T07:08:33;4.43;;;2.83;;
13386;SDS011;6763;48.524;9.044;2023-10-19T07:10:58;3.73;;;2.67;;
13386;SDS011;6763;48.524;9.044;2023-10-19T07:13:25;2.83;;;2.53;;
13386;SDS011;6763;48.524;9.044;2023-10-19T07:15:51;4.17;;;3.00;;
13386;SDS011;6763;48.524;9.044;2023-10-19T07:18:16;4.03;;;3.17;;
13386;SDS011;6763;48.524;9.044;2023-10-19T07:20:42;4.70;;;2.40;;
13386;SDS011;6763;48.524;9.044;2023-10-19T07:23:07;3.80;;;2.77;;
13386;SDS011;6763;48.524;9.044;2023-10-19T07:25:51;3.70;;;2.40;;
13386;SDS011;6763;48.524;9.044;2023-10-19T07:28:21;3.23;;;2.63;;
13386;SDS011;6763;48.524;9.044;2023-10-19T07:30:57;3.80;;;2.83;;
13386;SDS011;6763;48.524;9.044;2023-10-19T07:33:24;4.13;;;2.80;;
13386;SDS011;6763;48.524;9.044;2023-10-19T07:35:51;4.00;;;2.77;;
13386;SDS011;6763;48.524;9.044;2023-10-19T07:38:23;4.23;;;3.10;;
13386;SDS011;6763;48.524;9.044;2023-10-19T07:40:50;4.37;;;2.63;;
13386;SDS011;6763;48.524;9.044;2023-10-19T07:43:21;5.47;;;3.40;;
13386;SDS011;6763;48.524;9.044;2023-10-19T07:45:47;7.13;;;3.50;;
13386;SDS011;6763;48.524;9.044;2023-10-19T07:48:13;6.43;;;4.20;;
13386;SDS011;6763;48.524;9.044;2023-10-19T07:50:39;5.77;;;3.43;;
13386;SDS011;6763;48.524;9.044;2023-10-19T07:53:08;4.73;;;3.33;;
13386;SDS011;6763;48.524;9.044;2023-10-19T07:55:37;3.33;;;2.80;;
13386;SDS011;6763;48.524;9.044;2023-10-19T07:58:03;4.03;;;2.90;;
13386;SDS011;6763;48.524;9.044;2023-10-19T08:00:29;4.97;;;3.63;;
13386;SDS011;6763;48.524;9.044;2023-10-19T08:02:55;7.07;;;3.80;;
13386;SDS011;6763;48.524;9.044;2023-10-19T08:05:21;8.70;;;4.17;;
13386;SDS011;6763;48.524;9.044;2023-10-19T08:07:46;4.43;;;3.40;;
13386;SDS011;6763;48.524;9.044;2023-10-19T08:10:12;5.80;;;3.43;;
13386;SDS011;6763;48.524;9.044;2023-10-19T08:12:40;4.20;;;3.40;;
13386;SDS011;6763;48.524;9.044;2023-10-19T08:15:10;6.87;;;4.03;;
13386;SDS011;6763;48.524;9.044;2023-10-19T08:17:44;6.37;;;3.77;;
13386;SDS011;6763;48.524;9.044;2023-10-19T08:20:12;4.90;;;3.30;;
13386;SDS011;6763;48.524;9.044;2023-10-19T08:22:44;5.00;;;3.03;;
13386;SDS011;6763;48.524;9.044;2023-10-19T08:25:12;4.37;;;2.93;;
13386;SDS011;6763;48.524;9.044;2023-10-19T08:27:39;3.70;;;3.10;;
13386;SDS011;6763;48.524;9.044;2023-10-19T08:30:13;3.67;;;2.90;;
13386;SDS011;6763;48.524;9.044;2023-10-19T08:32:40;6.00;;;2.90;;
13386;SDS011;6763;48.524;9.044;2023-10-19T08:35:07;3.77;;;2.70;;
13386;SDS011;6763;48.524;9.044;2023-10-19T08:37:33;3.33;;;2.77;;
13386;SDS011;6763;48.524;9.044;2023-10-19T08:40:01;3.57;;;2.70;;
13386;SDS011;6763;48.524;9.044;2023-10-19T08:42:27;3.13;;;2.67;;
13386;SDS011;6763;48.524;9.044;2023-10-19T08:44:55;3.60;;;2.87;;
13386;SDS011;6763;48.524;9.044;2023-10-19T08:47:20;3.13;;;2.57;;
13386;SDS011;6763;48.524;9.044;2023-10-19T08:49:50;3.00;;;2.80;;
13386;SDS011;6763;48.524;9.044;2023-10-19T08:52:17;3.30;;;2.83;;
13386;SDS011;6763;48.524;9.044;2023-10-19T08:54:45;4.70;;;2.80;;
13386;SDS011;6763;48.524;9.044;2023-10-19T08:57:13;3.20;;;2.70;;
13386;SDS011;6763;48.524;9.044;2023-10-19T08:59:39;5.67;;;2.87;;
13386;SDS011;6763;48.524;9.044;2023-10-19T09:02:04;3.10;;;2.80;;
13386;SDS011;6763;48.524;9.044;2023-10-19T09:04:32;4.43;;;3.10;;
13386;SDS011;6763;48.524;9.044;2023-10-19T09:06:57;3.27;;;2.67;;
13386;SDS011;6763;48.524;9.044;2023-10-19T09:09:23;6.00;;;3.97;;
13386;SDS011;6763;48.524;9.044;2023-10-19T09:11:51;6.63;;;3.67;;
13386;SDS011;6763;48.524;9.044;2023-10-19T09:14:35;4.77;;;3.40;;
13386;SDS011;6763;48.524;9.044;2023-10-19T09:17:04;4.10;;;3.10;;
13386;SDS011;6763;48.524;9.044;2023-10-19T09:19:37;3.97;;;3.00;;
13386;SDS011;6763;48.524;9.044;2023-10-19T09:22:03;4.50;;;3.20;;
13386;SDS011;6763;48.524;9.044;2023-10-19T09:24:47;4.70;;;3.43;;
13386;SDS011;6763;48.524;9.044;2023-10-19T09:27:16;3.67;;;3.20;;
13386;SDS011;6763;48.524;9.044;2023-10-19T09:29:42;4.40;;;3.00;;
13386;SDS011;6763;48.524;9.044;2023-10-19T09:32:10;4.47;;;2.77;;
13386;SDS011;6763;48.524;9.044;2023-10-19T09:34:38;4.10;;;3.23;;
13386;SDS011;6763;48.524;9.044;2023-10-19T09:37:09;4.93;;;3.50;;
13386;SDS011;6763;48.524;9.044;2023-10-19T09:39:35;3.87;;;2.90;;
13386;SDS011;6763;48.524;9.044;2023-10-19T09:42:08;2.77;;;2.57;;
13386;SDS011;6763;48.524;9.044;2023-10-19T09:44:45;3.33;;;3.00;;
13386;SDS011;6763;48.524;9.044;2023-10-19T09:47:29;3.93;;;2.90;;
13386;SDS011;6763;48.524;9.044;2023-10-19T09:50:00;4.33;;;3.30;;
13386;SDS011;6763;48.524;9.044;2023-10-19T09:52:26;4.60;;;2.97;;
13386;SDS011;6763;48.524;9.044;2023-10-19T09:55:13;4.27;;;2.63;;
13386;SDS011;6763;48.524;9.044;2023-10-19T09:57:55;3.83;;;3.10;;
13386;SDS011;6763;48.524;9.044;2023-10-19T10:00:24;4.00;;;2.60;;
13386;SDS011;6763;48.524;9.044;2023-10-19T10:02:51;3.03;;;2.63;;
13386;SDS011;6763;48.524;9.044;2023-10-19T10:10:48;4.20;;;2.60;;
13386;SDS011;6763;48.524;9.044;2023-10-19T10:15:51;2.60;;;2.40;;
13386;SDS011;6763;48.524;9.044;2023-10-19T10:18:25;4.00;;;2.20;;
13386;SDS011;6763;48.524;9.044;2023-10-19T10:21:05;3.20;;;2.47;;
13386;SDS011;6763;48.524;9.044;2023-10-19T10:26:31;3.63;;;2.17;;
13386;SDS011;6763;48.524;9.044;2023-10-19T10:29:23;2.83;;;2.50;;
13386;SDS011;6763;48.524;9.044;2023-10-19T10:31:49;3.23;;;2.33;;
13386;SDS011;6763;48.524;9.044;2023-10-19T10:37:06;2.60;;;2.40;;
13386;SDS011;6763;48.524;9.044;2023-10-19T10:39:33;2.97;;;2.27;;
13386;SDS011;6763;48.524;9.044;2023-10-19T10:42:02;2.80;;;2.53;;
13386;SDS011;6763;48.524;9.044;2023-10-19T10:44:50;2.73;;;2.43;;
13386;SDS011;6763;48.524;9.044;2023-10-19T10:47:20;3.50;;;2.43;;
13386;SDS011;6763;48.524;9.044;2023-10-19T10:49:50;2.93;;;2.60;;
13386;SDS011;6763;48.524;9.044;2023-10-19T10:52:29;2.73;;;2.37;;
13386;SDS011;6763;48.524;9.044;2023-10-19T10:54:57;2.87;;;2.07;;
13386;SDS011;6763;48.524;9.044;2023-10-19T10:57:36;3.87;;;2.47;;
13386;SDS011;6763;48.524;9.044;2023-10-19T11:00:03;4.53;;;2.80;;
13386;SDS011;6763;48.524;9.044;2023-10-19T11:02:42;2.93;;;2.50;;
13386;SDS011;6763;48.524;9.044;2023-10-19T11:05:14;3.10;;;2.10;;
13386;SDS011;6763;48.524;9.044;2023-10-19T11:10:45;3.10;;;2.50;;
13386;SDS011;6763;48.524;9.044;2023-10-19T11:13:16;3.67;;;2.70;;
13386;SDS011;6763;48.524;9.044;2023-10-19T11:15:55;3.03;;;2.30;;
13386;SDS011;6763;48.524;9.044;2023-10-19T11:18:30;3.20;;;2.63;;
13386;SDS011;6763;48.524;9.044;2023-10-19T11:21:11;3.63;;;2.70;;
13386;SDS011;6763;48.524;9.044;2023-10-19T11:26:05;6.43;;;5.03;;
13386;SDS011;6763;48.524;9.044;2023-10-19T11:28:31;4.33;;;3.40;;
13386;SDS011;6763;48.524;9.044;2023-10-19T11:31:11;3.43;;;2.80;;
13386;SDS011;6763;48.524;9.044;2023-10-19T11:33:37;3.90;;;2.70;;
13386;SDS011;6763;48.524;9.044;2023-10-19T11:36:03;3.60;;;2.80;;
13386;SDS011;6763;48.524;9.044;2023-10-19T11:38:29;3.30;;;2.60;;
13386;SDS011;6763;48.524;9.044;2023-10-19T11:40:54;3.87;;;2.67;;
13386;SDS011;6763;48.524;9.044;2023-10-19T11:43:20;2.93;;;2.60;;
13386;SDS011;6763;48.524;9.044;2023-10-19T11:45:45;3.07;;;2.73;;
13386;SDS011;6763;48.524;9.044;2023-10-19T11:48:11;3.40;;;2.67;;
13386;SDS011;6763;48.524;9.044;2023-10-19T11:50:36;3.03;;;2.73;;
13386;SDS011;6763;48.524;9.044;2023-10-19T11:53:01;5.70;;;3.30;;
13386;SDS011;6763;48.524;9.044;2023-10-19T11:55:28;4.80;;;3.30;;
13386;SDS011;6763;48.524;9.044;2023-10-19T11:57:57;6.00;;;3.20;;
13386;SDS011;6763;48.524;9.044;2023-10-19T12:00:22;5.37;;;3.57;;
13386;SDS011;6763;48.524;9.044;2023-10-19T12:02:49;3.67;;;3.03;;
13386;SDS011;6763;48.524;9.044;2023-10-19T12:05:16;3.97;;;3.23;;
13386;SDS011;6763;48.524;9.044;2023-10-19T12:07:42;5.93;;;3.13;;
13386;SDS011;6763;48.524;9.044;2023-10-19T12:10:10;4.77;;;3.20;;
13386;SDS011;6763;48.524;9.044;2023-10-19T12:12:37;3.57;;;3.07;;
13386;SDS011;6763;48.524;9.044;2023-10-19T12:15:03;6.03;;;3.40;;
13386;SDS011;6763;48.524;9.044;2023-10-19T12:17:32;5.53;;;3.50;;
13386;SDS011;6763;48.524;9.044;2023-10-19T12:19:58;4.40;;;3.00;;
13386;SDS011;6763;48.524;9.044;2023-10-19T12:22:23;6.27;;;4.17;;
13386;SDS011;6763;48.524;9.044;2023-10-19T12:24:53;6.23;;;3.87;;
13386;SDS011;6763;48.524;9.044;2023-10-19T12:27:19;4.80;;;3.60;;
13386;SDS011;6763;48.524;9.044;2023-10-19T12:29:45;5.17;;;3.33;;
13386;SDS011;6763;48.524;9.044;2023-10-19T12:32:10;5.47;;;3.23;;
13386;SDS011;6763;48.524;9.044;2023-10-19T12:34:39;4.37;;;3.60;;
13386;SDS011;6763;48.524;9.044;2023-10-19T12:37:05;3.30;;;3.00;;
13386;SDS011;6763;48.524;9.044;2023-10-19T12:39:33;5.73;;;3.57;;
13386;SDS011;6763;48.524;9.044;2023-10-19T12:42:07;4.60;;;2.97;;
13386;SDS011;6763;48.524;9.044;2023-10-19T12:44:33;4.90;;;2.67;;
13386;SDS011;6763;48.524;9.044;2023-10-19T12:47:06;4.80;;;3.27;;
13386;SDS011;6763;48.524;9.044;2023-10-19T12:49:42;3.97;;;2.90;;
13386;SDS011;6763;48.524;9.044;2023-10-19T12:52:11;3.43;;;2.80;;
13386;SDS011;6763;48.524;9.044;2023-10-19T12:54:41;4.43;;;3.07;;
13386;SDS011;6763;48.524;9.044;2023-10-19T12:57:10;3.43;;;3.03;;
13386;SDS011;6763;48.524;9.044;2023-10-19T12:59:38;3.93;;;3.00;;
13386;SDS011;6763;48.524;9.044;2023-10-19T13:02:08;4.27;;;3.27;;
13386;SDS011;6763;48.524;9.044;2023-10-19T13:04:40;4.83;;;3.20;;
13386;SDS011;6763;48.524;9.044;2023-10-19T13:07:10;4.20;;;3.10;;
13386;SDS011;6763;48.524;9.044;2023-10-19T13:09:41;4.70;;;2.87;;
13386;SDS011;6763;48.524;9.044;2023-10-19T13:12:09;4.37;;;3.10;;
13386;SDS011;6763;48.524;9.044;2023-10-19T13:14:37;4.27;;;3.23;;
13386;SDS011;6763;48.524;9.044;2023-10-19T13:17:04;4.23;;;3.50;;
13386;SDS011;6763;48.524;9.044;2023-10-19T13:19:31;4.70;;;2.97;;
13386;SDS011;6763;48.524;9.044;2023-10-19T13:22:01;4.00;;;2.90;;
13386;SDS011;6763;48.524;9.044;2023-10-19T13:24:34;3.37;;;2.77;;
13386;SDS011;6763;48.524;9.044;2023-10-19T13:27:09;3.80;;;3.03;;
13386;SDS011;6763;48.524;9.044;2023-10-19T13:29:35;3.10;;;2.80;;
13386;SDS011;6763;48.524;9.044;2023-10-19T13:32:03;3.23;;;2.50;;
13386;SDS011;6763;48.524;9.044;2023-10-19T13:34:29;3.17;;;2.70;;
13386;SDS011;6763;48.524;9.044;2023-10-19T13:37:00;3.93;;;2.70;;
13386;SDS011;6763;48.524;9.044;2023-10-19T13:39:25;3.13;;;2.83;;
13386;SDS011;6763;48.524;9.044;2023-10-19T13:41:53;4.17;;;2.77;;
13386;SDS011;6763;48.524;9.044;2023-10-19T13:44:18;2.73;;;2.33;;
13386;SDS011;6763;48.524;9.044;2023-10-19T13:46:48;3.90;;;2.60;;
13386;SDS011;6763;48.524;9.044;2023-10-19T13:49:19;4.00;;;2.93;;
13386;SDS011;6763;48.524;9.044;2023-10-19T13:51:44;3.27;;;2.60;;
13386;SDS011;6763;48.524;9.044;2023-10-19T13:54:12;3.17;;;2.50;;
13386;SDS011;6763;48.524;9.044;2023-10-19T13:56:38;4.27;;;3.00;;
13386;SDS011;6763;48.524;9.044;2023-10-19T13:59:04;3.77;;;3.10;;
13386;SDS011;6763;48.524;9.044;2023-10-19T14:01:30;4.00;;;2.90;;
13386;SDS011;6763;48.524;9.044;2023-10-19T14:03:55;4.40;;;3.30;;
13386;SDS011;6763;48.524;9.044;2023-10-19T14:06:23;3.77;;;2.83;;
13386;SDS011;6763;48.524;9.044;2023-10-19T14:08:50;4.47;;;2.73;;
13386;SDS011;6763;48.524;9.044;2023-10-19T14:11:20;3.30;;;2.40;;
13386;SDS011;6763;48.524;9.044;2023-10-19T14:13:48;5.50;;;3.10;;
13386;SDS011;6763;48.524;9.044;2023-10-19T14:16:15;3.67;;;2.87;;
13386;SDS011;6763;48.524;9.044;2023-10-19T14:18:41;6.20;;;3.10;;
13386;SDS011;6763;48.524;9.044;2023-10-19T14:21:10;6.30;;;3.70;;
13386;SDS011;6763;48.524;9.044;2023-10-19T14:24:02;5.07;;;4.00;;
13386;SDS011;6763;48.524;9.044;2023-10-19T14:26:33;7.00;;;4.30;;
13386;SDS011;6763;48.524;9.044;2023-10-19T14:29:01;4.57;;;3.90;;
13386;SDS011;6763;48.524;9.044;2023-10-19T14:31:26;6.53;;;3.83;;
13386;SDS011;6763;48.524;9.044;2023-10-19T14:33:52;4.93;;;3.50;;
13386;SDS011;6763;48.524;9.044;2023-10-19T14:36:19;3.97;;;2.90;;
13386;SDS011;6763;48.524;9.044;2023-10-19T14:38:45;5.00;;;3.40;;
13386;SDS011;6763;48.524;9.044;2023-10-19T14:41:13;4.23;;;3.20;;
13386;SDS011;6763;48.524;9.044;2023-10-19T14:43:40;4.97;;;3.40;;
13386;SDS011;6763;48.524;9.044;2023-10-19T14:46:05;4.83;;;3.10;;
13386;SDS011;6763;48.524;9.044;2023-10-19T14:48:31;4.40;;;3.37;;
13386;SDS011;6763;48.524;9.044;2023-10-19T14:50:57;5.17;;;3.23;;
13386;SDS011;6763;48.524;9.044;2023-10-19T14:53:23;4.23;;;3.10;;
13386;SDS011;6763;48.524;9.044;2023-10-19T14:55:58;4.03;;;2.93;;
13386;SDS011;6763;48.524;9.044;2023-10-19T14:58:26;4.17;;;3.17;;
13386;SDS011;6763;48.524;9.044;2023-10-19T15:00:54;5.13;;;3.60;;
13386;SDS011;6763;48.524;9.044;2023-10-19T15:03:25;3.30;;;2.80;;
13386;SDS011;6763;48.524;9.044;2023-10-19T15:05:50;3.30;;;2.80;;
13386;SDS011;6763;48.524;9.044;2023-10-19T15:08:24;4.07;;;3.20;;
13386;SDS011;6763;48.524;9.044;2023-10-19T15:10:51;4.57;;;3.07;;
13386;SDS011;6763;48.524;9.044;2023-10-19T15:13:21;3.37;;;2.80;;
13386;SDS011;6763;48.524;9.044;2023-10-19T15:15:50;6.17;;;3.20;;
13386;SDS011;6763;48.524;9.044;2023-10-19T15:18:16;3.77;;;2.57;;
13386;SDS011;6763;48.524;9.044;2023-10-19T15:20:43;3.63;;;3.10;;
13386;SDS011;6763;48.524;9.044;2023-10-19T15:23:08;5.63;;;3.13;;
13386;SDS011;6763;48.524;9.044;2023-10-19T15:25:34;4.57;;;3.57;;
13386;SDS011;6763;48.524;9.044;2023-10-19T15:28:04;3.97;;;2.90;;
13386;SDS011;6763;48.524;9.044;2023-10-19T15:30:30;5.73;;;3.30;;
13386;SDS011;6763;48.524;9.044;2023-10-19T15:32:55;4.10;;;2.93;;
13386;SDS011;6763;48.524;9.044;2023-10-19T15:35:21;3.50;;;2.80;;
13386;SDS011;6763;48.524;9.044;2023-10-19T15:37:50;3.73;;;2.90;;
13386;SDS011;6763;48.524;9.044;2023-10-19T15:40:19;3.23;;;2.50;;
13386;SDS011;6763;48.524;9.044;2023-10-19T15:43:00;3.40;;;2.97;;
13386;SDS011;6763;48.524;9.044;2023-10-19T15:45:28;4.03;;;2.80;;